createdAt,value
2019-05-03T00:02:17.833Z,99.04
2019-05-03T00:04:45.531Z,98.32
2019-05-03T00:07:11.831Z,98.39
2019-05-03T00:09:37.735Z,98.00
2019-05-03T00:12:03.554Z,97.61
2019-05-03T00:14:32.371Z,97.07
2019-05-03T00:16:58.206Z,96.81
2019-05-03T00:19:24.274Z,97.10
2019-05-03T00:21:50.072Z,96.79
2019-05-03T00:24:16.137Z,96.97
2019-05-03T00:26:42.363Z,97.31
2019-05-03T00:29:08.398Z,97.19
2019-05-03T00:31:34.463Z,96.92
2019-05-03T00:34:05.018Z,96.68
2019-05-03T00:36:48.198Z,95.89
2019-05-03T00:39:15.881Z,95.59
2019-05-03T00:41:42.581Z,95.91
2019-05-03T00:44:08.493Z,95.92
2019-05-03T00:46:34.548Z,96.01
2019-05-03T00:49:00.643Z,95.86
2019-05-03T00:51:26.472Z,95.88
2019-05-03T00:53:53.065Z,95.86
2019-05-03T00:56:19.053Z,95.87
2019-05-03T00:58:49.580Z,95.63
2019-05-03T01:01:16.490Z,95.72
2019-05-03T01:03:42.300Z,95.88
2019-05-03T01:06:08.376Z,95.62
2019-05-03T01:08:34.166Z,94.95
2019-05-03T01:11:01.994Z,94.89
2019-05-03T01:13:27.653Z,94.57
2019-05-03T01:16:02.761Z,94.49
2019-05-03T01:18:28.680Z,94.52
2019-05-03T01:20:54.476Z,94.85
2019-05-03T01:23:21.917Z,95.88
2019-05-03T01:25:47.881Z,96.16
2019-05-03T01:28:13.692Z,95.74
2019-05-03T01:30:39.735Z,95.58
2019-05-03T01:33:05.531Z,95.48
2019-05-03T01:35:32.257Z,95.68
2019-05-03T01:37:58.136Z,95.22
2019-05-03T01:40:24.203Z,94.62
2019-05-03T01:42:51.818Z,95.05
2019-05-03T01:45:17.982Z,94.84
2019-05-03T01:47:48.745Z,95.27
2019-05-03T01:50:32.092Z,95.32
2019-05-03T01:53:02.825Z,94.69
2019-05-03T01:55:47.338Z,95.26
2019-05-03T01:58:13.401Z,95.74
2019-05-03T02:00:39.217Z,95.93
2019-05-03T02:03:07.180Z,96.16
2019-05-03T02:05:43.857Z,96.60
2019-05-03T02:08:12.553Z,96.16
2019-05-03T02:10:38.471Z,96.30
2019-05-03T02:13:04.599Z,96.44
2019-05-03T02:15:30.414Z,96.28
2019-05-03T02:17:56.201Z,96.55
2019-05-03T02:20:22.240Z,96.79
2019-05-03T02:22:48.322Z,96.56
2019-05-03T02:25:14.374Z,96.44
2019-05-03T02:27:42.348Z,96.47
2019-05-03T02:30:08.320Z,96.54
2019-05-03T02:32:34.369Z,96.74
2019-05-03T02:35:02.739Z,96.84
2019-05-03T02:37:28.494Z,96.46
2019-05-03T02:39:55.228Z,96.79
2019-05-03T02:42:21.027Z,96.50
2019-05-03T02:44:46.804Z,97.19
2019-05-03T02:47:31.209Z,97.03
2019-05-03T02:49:58.907Z,97.12
2019-05-03T02:52:36.581Z,97.23
2019-05-03T02:55:06.098Z,97.19
2019-05-03T02:57:31.875Z,97.85
2019-05-03T02:59:57.652Z,98.10
2019-05-03T03:02:26.402Z,98.13
2019-05-03T03:04:51.824Z,97.84
2019-05-03T03:07:17.946Z,97.68
2019-05-03T03:09:45.238Z,98.00
2019-05-03T03:12:11.551Z,98.01
2019-05-03T03:14:38.670Z,98.14
2019-05-03T03:17:06.761Z,98.04
2019-05-03T03:19:35.302Z,98.48
2019-05-03T03:22:05.946Z,98.63
2019-05-03T03:24:32.381Z,98.71
2019-05-03T03:26:58.274Z,98.75
2019-05-03T03:29:26.470Z,98.48
2019-05-03T03:32:10.437Z,98.90
2019-05-03T03:34:40.059Z,99.06
2019-05-03T03:37:10.361Z,98.60
2019-05-03T03:39:36.086Z,98.72
2019-05-03T03:42:05.131Z,98.87
2019-05-03T03:44:30.272Z,98.83
2019-05-03T03:46:57.305Z,98.67
2019-05-03T03:49:26.155Z,98.60
2019-05-03T03:51:52.268Z,98.75
2019-05-03T03:54:18.995Z,98.58
2019-05-03T03:56:59.283Z,98.73
2019-05-03T03:59:26.725Z,97.99
2019-05-03T04:01:55.110Z,97.84
2019-05-03T04:04:21.967Z,97.86
2019-05-03T04:06:48.949Z,98.29
2019-05-03T04:09:16.046Z,98.24
2019-05-03T04:11:42.096Z,98.04
2019-05-03T04:14:09.909Z,97.86
2019-05-03T04:16:38.312Z,97.42
2019-05-03T04:19:13.117Z,98.03
2019-05-03T04:21:39.002Z,97.00
2019-05-03T04:24:05.939Z,96.98
2019-05-03T04:26:32.281Z,97.00
2019-05-03T04:28:58.722Z,97.16
2019-05-03T04:31:26.106Z,97.51
2019-05-03T04:33:52.137Z,97.13
2019-05-03T04:36:17.931Z,96.86
2019-05-03T04:38:45.316Z,97.26
2019-05-03T04:41:11.330Z,96.71
2019-05-03T04:43:37.360Z,96.63
2019-05-03T04:46:08.316Z,97.02
2019-05-03T04:48:35.784Z,97.08
2019-05-03T04:51:02.169Z,96.90
2019-05-03T04:53:28.913Z,97.03
2019-05-03T04:55:55.899Z,96.41
2019-05-03T04:58:21.802Z,96.52
2019-05-03T05:00:47.581Z,97.23
2019-05-03T05:03:15.045Z,97.27
2019-05-03T05:05:41.067Z,96.90
2019-05-03T05:08:06.899Z,96.50
2019-05-03T05:10:32.659Z,97.09
2019-05-03T05:12:58.475Z,97.02
2019-05-03T05:15:26.519Z,96.89
2019-05-03T05:17:56.127Z,96.86
2019-05-03T05:20:24.803Z,97.13
2019-05-03T05:22:50.982Z,97.65
2019-05-03T05:25:21.751Z,97.68
2019-05-03T05:27:58.052Z,97.90
2019-05-03T05:30:25.179Z,98.06
2019-05-03T05:32:51.159Z,98.67
2019-05-03T05:35:17.007Z,97.77
2019-05-03T05:37:44.421Z,96.57
2019-05-03T05:40:10.317Z,95.43
2019-05-03T05:42:36.375Z,94.31
2019-05-03T05:45:04.976Z,93.61
2019-05-03T05:47:34.495Z,92.20
2019-05-03T05:50:02.407Z,92.49
2019-05-03T05:52:28.200Z,93.17
2019-05-03T05:54:56.205Z,93.79
2019-05-03T05:57:25.611Z,93.69
2019-05-03T05:59:56.172Z,94.65
2019-05-03T06:02:22.221Z,94.91
2019-05-03T06:04:48.038Z,94.13
2019-05-03T06:07:28.121Z,95.03
2019-05-03T06:09:55.831Z,95.58
2019-05-03T06:12:38.830Z,95.68
2019-05-03T06:15:07.541Z,96.31
2019-05-03T06:17:35.472Z,95.84
2019-05-03T06:20:22.306Z,96.00
2019-05-03T06:22:50.268Z,95.25
2019-05-03T06:25:27.016Z,95.11
2019-05-03T06:27:54.867Z,94.43
2019-05-03T06:30:22.425Z,95.16
2019-05-03T06:32:48.537Z,95.41
2019-05-03T06:35:15.214Z,95.11
2019-05-03T06:37:45.882Z,94.36
2019-05-03T06:40:12.412Z,95.17
2019-05-03T06:42:50.952Z,95.86
2019-05-03T06:45:10.472Z,94.88
2019-05-03T06:47:34.858Z,94.74
2019-05-03T06:50:00.744Z,95.38
2019-05-03T06:52:29.341Z,95.10
2019-05-03T06:54:55.362Z,95.50
2019-05-03T06:57:21.217Z,94.75
2019-05-03T06:59:48.934Z,94.30
2019-05-03T07:02:22.345Z,93.14
2019-05-03T07:04:50.054Z,93.08
2019-05-03T07:07:29.968Z,93.42
2019-05-03T07:10:06.426Z,93.87
2019-05-03T07:12:51.158Z,94.67
2019-05-03T07:15:25.176Z,94.87
2019-05-03T07:17:55.607Z,94.30
2019-05-03T07:20:21.720Z,94.71
2019-05-03T07:22:47.538Z,94.25
2019-05-03T07:25:14.962Z,93.82
2019-05-03T07:27:45.227Z,94.16
2019-05-03T07:30:11.806Z,94.37
2019-05-03T07:32:39.011Z,94.13
2019-05-03T07:35:05.140Z,92.85
2019-05-03T07:37:31.254Z,92.55
2019-05-03T07:39:57.029Z,91.74
2019-05-03T07:42:23.070Z,91.10
2019-05-03T07:44:48.844Z,91.59
2019-05-03T07:47:14.927Z,90.71
2019-05-03T07:49:44.704Z,89.09
2019-05-03T07:52:11.835Z,91.40
2019-05-03T07:54:37.845Z,91.25
2019-05-03T07:57:05.809Z,90.77
2019-05-03T07:59:35.684Z,89.80
2019-05-03T08:02:01.531Z,89.10
2019-05-03T08:04:27.314Z,88.15
2019-05-03T08:06:54.916Z,87.23
2019-05-03T08:09:24.641Z,86.94
2019-05-03T08:11:50.539Z,85.19
2019-05-03T08:14:18.300Z,83.36
2019-05-03T08:16:45.635Z,81.71
2019-05-03T08:19:11.853Z,78.74
2019-05-03T08:21:38.970Z,79.75
2019-05-03T08:24:05.507Z,78.88
2019-05-03T08:26:31.298Z,77.67
2019-05-03T08:28:57.101Z,77.28
2019-05-03T08:31:37.564Z,78.04
2019-05-03T08:34:06.006Z,78.53
2019-05-03T08:36:36.837Z,75.79
2019-05-03T08:39:05.447Z,77.12
2019-05-03T08:41:35.173Z,75.89
2019-05-03T08:44:01.064Z,76.14
2019-05-03T08:46:26.855Z,77.74
2019-05-03T08:48:54.854Z,75.40
2019-05-03T08:51:20.863Z,73.40
2019-05-03T08:53:46.679Z,74.09
2019-05-03T08:56:12.764Z,76.44
2019-05-03T08:58:38.572Z,75.06
2019-05-03T09:01:05.675Z,74.33
2019-05-03T09:03:31.730Z,72.68
2019-05-03T09:05:57.511Z,72.82
2019-05-03T09:08:24.889Z,73.46
2019-05-03T09:10:55.940Z,75.21
2019-05-03T09:13:22.044Z,73.40
2019-05-03T09:15:49.728Z,73.24
2019-05-03T09:18:17.475Z,69.26
2019-05-03T09:20:44.821Z,70.61
2019-05-03T09:23:10.787Z,70.56
2019-05-03T09:25:36.593Z,70.43
2019-05-03T09:28:04.733Z,67.89
2019-05-03T09:30:30.717Z,65.42
2019-05-03T09:32:56.618Z,66.12
2019-05-03T09:35:30.553Z,63.89
2019-05-03T09:37:50.354Z,64.78
2019-05-03T09:40:16.157Z,66.70
2019-05-03T09:42:41.950Z,66.58
2019-05-03T09:45:08.665Z,67.04
2019-05-03T09:47:35.345Z,66.39
2019-05-03T09:50:02.352Z,66.26
2019-05-03T09:52:28.516Z,65.70
2019-05-03T09:54:56.214Z,67.55
2019-05-03T09:57:22.004Z,68.02
2019-05-03T09:59:56.471Z,69.43
2019-05-03T10:02:15.746Z,66.55
2019-05-03T10:04:41.565Z,69.04
2019-05-03T10:07:07.368Z,66.88
2019-05-03T10:09:35.196Z,68.11
2019-05-03T10:12:01.841Z,65.16
2019-05-03T10:14:27.622Z,65.10
2019-05-03T10:16:55.313Z,65.00
2019-05-03T10:19:34.109Z,66.41
2019-05-03T10:21:49.313Z,64.70
2019-05-03T10:24:15.297Z,65.59
2019-05-03T10:26:41.117Z,63.82
2019-05-03T10:29:07.240Z,60.89
2019-05-03T10:31:38.029Z,62.16
2019-05-03T10:34:05.834Z,63.49
2019-05-03T10:36:31.908Z,61.78
2019-05-03T10:38:57.987Z,63.29
2019-05-03T10:41:25.112Z,60.88
2019-05-03T10:43:51.528Z,57.05
2019-05-03T10:46:17.309Z,59.89
2019-05-03T10:48:45.133Z,59.72
2019-05-03T10:51:10.840Z,60.01
2019-05-03T10:53:38.523Z,61.04
2019-05-03T10:56:22.781Z,61.60
2019-05-03T10:58:59.757Z,61.69
2019-05-03T11:01:30.201Z,60.22
2019-05-03T11:03:56.018Z,60.74
2019-05-03T11:06:21.810Z,60.41
2019-05-03T11:08:47.833Z,59.71
2019-05-03T11:11:15.112Z,61.46
2019-05-03T11:13:41.050Z,61.76
2019-05-03T11:16:06.942Z,61.20
2019-05-03T11:18:34.549Z,58.28
2019-05-03T11:21:00.671Z,58.06
2019-05-03T11:23:26.685Z,57.34
2019-05-03T11:25:52.493Z,56.48
2019-05-03T11:28:20.199Z,54.03
2019-05-03T11:30:53.627Z,54.27
2019-05-03T11:33:15.997Z,52.77
2019-05-03T11:35:44.712Z,52.54
2019-05-03T11:38:14.948Z,54.82
2019-05-03T11:40:40.429Z,52.73
2019-05-03T11:43:06.328Z,51.37
2019-05-03T11:45:32.149Z,52.08
2019-05-03T11:47:58.206Z,54.25
2019-05-03T11:50:25.327Z,53.40
2019-05-03T11:52:51.389Z,54.95
2019-05-03T11:55:17.410Z,55.78
2019-05-03T11:57:45.019Z,52.83
2019-05-03T12:00:14.752Z,50.36
2019-05-03T12:02:44.776Z,51.93
2019-05-03T12:05:18.068Z,51.64
2019-05-03T12:07:45.540Z,49.18
2019-05-03T12:10:26.921Z,48.40
2019-05-03T12:12:41.141Z,51.79
2019-05-03T12:15:06.939Z,55.40
2019-05-03T12:17:35.368Z,52.24
2019-05-03T12:20:05.009Z,50.13
2019-05-03T12:22:31.801Z,51.75
2019-05-03T12:24:58.528Z,50.78
2019-05-03T12:27:25.046Z,48.24
2019-05-03T12:29:52.444Z,49.13
2019-05-03T12:32:18.357Z,48.81
2019-05-03T12:34:44.401Z,49.71
2019-05-03T12:37:10.202Z,49.17
2019-05-03T12:39:36.107Z,49.80
2019-05-03T12:42:01.968Z,50.47
2019-05-03T12:44:27.762Z,51.64
2019-05-03T12:46:53.534Z,51.07
2019-05-03T12:49:19.351Z,50.91
2019-05-03T12:51:45.412Z,52.61
2019-05-03T12:54:11.222Z,51.89
2019-05-03T12:56:37.322Z,51.62
2019-05-03T12:59:15.922Z,50.65
2019-05-03T13:01:56.069Z,49.72
2019-05-03T13:04:24.859Z,51.22
2019-05-03T13:06:59.630Z,51.24
2019-05-03T13:09:25.437Z,51.63
2019-05-03T13:11:58.934Z,52.04
2019-05-03T13:14:26.882Z,48.55
2019-05-03T13:16:55.071Z,47.97
2019-05-03T13:19:20.951Z,47.54
2019-05-03T13:21:46.772Z,50.92
2019-05-03T13:24:22.837Z,49.59
2019-05-03T13:26:40.558Z,51.65
2019-05-03T13:29:06.374Z,51.65
2019-05-03T13:31:32.183Z,49.62
2019-05-03T13:33:58.235Z,50.52
2019-05-03T13:36:27.018Z,50.73
2019-05-03T13:38:55.902Z,49.51
2019-05-03T13:41:25.029Z,49.51
2019-05-03T13:43:50.901Z,50.85
2019-05-03T13:46:16.671Z,50.13
2019-05-03T13:48:45.930Z,49.12
2019-05-03T13:51:14.735Z,49.50
2019-05-03T13:53:40.661Z,48.18
2019-05-03T13:56:06.479Z,49.00
2019-05-03T13:58:32.641Z,48.38
2019-05-03T14:00:58.736Z,50.62
2019-05-03T14:03:24.522Z,50.63
2019-05-03T14:05:50.522Z,52.23
2019-05-03T14:08:19.765Z,53.99
2019-05-03T14:10:45.808Z,53.99
2019-05-03T14:13:11.638Z,54.29
2019-05-03T14:15:37.439Z,53.57
2019-05-03T14:18:10.915Z,52.87
2019-05-03T14:20:55.220Z,53.30
2019-05-03T14:23:21.383Z,51.60
2019-05-03T14:25:47.187Z,52.72
2019-05-03T14:28:14.582Z,51.25
2019-05-03T14:30:40.468Z,52.51
2019-05-03T14:33:06.563Z,52.30
2019-05-03T14:35:34.518Z,53.21
2019-05-03T14:38:00.070Z,53.64
2019-05-03T14:40:26.144Z,53.00
2019-05-03T14:42:51.966Z,52.75
2019-05-03T14:45:18.079Z,52.09
2019-05-03T14:47:43.902Z,49.73
2019-05-03T14:50:10.641Z,49.73
2019-05-03T14:52:36.470Z,47.85
2019-05-03T14:55:14.772Z,48.86
2019-05-03T14:57:51.633Z,49.22
2019-05-03T15:00:19.464Z,46.79
2019-05-03T15:02:50.915Z,46.79
2019-05-03T15:05:15.412Z,46.87
2019-05-03T15:07:41.182Z,46.87
2019-05-03T15:10:07.214Z,46.19
2019-05-03T15:12:35.404Z,46.98
2019-05-03T15:15:01.071Z,47.30
2019-05-03T15:17:27.150Z,45.55
2019-05-03T15:19:54.729Z,44.82
2019-05-03T15:22:20.641Z,44.22
2019-05-03T15:24:46.425Z,44.22
2019-05-03T15:27:12.229Z,45.10
2019-05-03T15:29:38.054Z,45.23
2019-05-03T15:32:05.010Z,45.63
2019-05-03T15:34:31.075Z,44.65
2019-05-03T15:36:57.091Z,42.79
2019-05-03T15:39:22.911Z,45.28
2019-05-03T15:41:48.714Z,45.28
2019-05-03T15:44:16.713Z,46.20
2019-05-03T15:46:45.035Z,47.77
2019-05-03T15:49:10.996Z,49.22
2019-05-03T15:51:37.007Z,49.22
2019-05-03T15:54:04.553Z,50.14
2019-05-03T15:56:30.655Z,51.17
2019-05-03T15:58:56.455Z,52.33
2019-05-03T16:01:22.253Z,51.87
2019-05-03T16:03:48.053Z,52.86
2019-05-03T16:06:15.517Z,52.88
2019-05-03T16:08:41.784Z,52.40
2019-05-03T16:11:07.591Z,52.24
2019-05-03T16:13:35.130Z,52.53
2019-05-03T16:16:01.119Z,53.90
2019-05-03T16:18:26.938Z,53.86
2019-05-03T16:20:54.628Z,53.90
2019-05-03T16:23:20.710Z,53.17
2019-05-03T16:25:46.534Z,54.01
2019-05-03T16:28:15.217Z,54.04
2019-05-03T16:30:43.002Z,54.96
2019-05-03T16:33:08.777Z,55.39
2019-05-03T16:35:37.606Z,55.07
2019-05-03T16:38:02.912Z,55.38
2019-05-03T16:40:29.008Z,53.30
2019-05-03T16:42:54.802Z,51.92
2019-05-03T16:45:20.856Z,51.45
2019-05-03T16:47:46.896Z,50.77
2019-05-03T16:50:14.523Z,50.93
2019-05-03T16:52:40.386Z,51.41
2019-05-03T16:55:06.266Z,52.41
2019-05-03T16:57:32.083Z,52.26
2019-05-03T16:59:58.144Z,52.81
2019-05-03T17:02:24.575Z,53.02
2019-05-03T17:04:52.433Z,52.72
2019-05-03T17:07:36.829Z,54.40
2019-05-03T17:10:25.416Z,54.31
2019-05-03T17:12:51.105Z,54.98
2019-05-03T17:15:17.382Z,54.89
2019-05-03T17:17:45.175Z,55.43
2019-05-03T17:20:11.238Z,56.87
2019-05-03T17:22:37.802Z,56.20
2019-05-03T17:25:06.394Z,56.44
2019-05-03T17:27:31.997Z,55.66
2019-05-03T17:29:57.887Z,56.79
2019-05-03T17:32:24.565Z,57.42
2019-05-03T17:34:50.463Z,57.03
2019-05-03T17:37:16.251Z,57.86
2019-05-03T17:40:03.126Z,57.69
2019-05-03T17:42:47.481Z,58.17
2019-05-03T17:45:15.290Z,57.83
2019-05-03T17:47:41.137Z,58.78
2019-05-03T17:50:07.021Z,59.85
2019-05-03T17:52:51.658Z,59.85
2019-05-03T17:55:19.637Z,59.77
2019-05-03T17:57:47.658Z,60.00
2019-05-03T18:00:24.561Z,60.80
2019-05-03T18:02:50.771Z,61.16
2019-05-03T18:05:35.768Z,61.41
2019-05-03T18:08:15.637Z,62.26
2019-05-03T18:10:43.347Z,62.85
2019-05-03T18:13:09.150Z,63.26
2019-05-03T18:15:34.973Z,63.64
2019-05-03T18:18:01.128Z,63.58
2019-05-03T18:20:26.923Z,64.39
2019-05-03T18:22:54.698Z,64.76
2019-05-03T18:25:20.639Z,64.08
2019-05-03T18:27:46.805Z,64.69
2019-05-03T18:30:13.393Z,65.28
2019-05-03T18:32:39.486Z,66.60
2019-05-03T18:35:05.809Z,66.98
2019-05-03T18:37:31.701Z,67.10
2019-05-03T18:39:57.693Z,67.53
2019-05-03T18:42:44.819Z,67.53
2019-05-03T18:45:18.773Z,67.44
2019-05-03T18:47:45.080Z,67.11
2019-05-03T18:50:11.061Z,67.70
2019-05-03T18:52:37.146Z,67.75
2019-05-03T18:55:04.551Z,68.10
2019-05-03T18:57:30.600Z,68.62
2019-05-03T18:59:56.705Z,68.56
2019-05-03T19:02:24.260Z,67.87
2019-05-03T19:04:52.092Z,68.18
2019-05-03T19:07:36.549Z,67.46
2019-05-03T19:10:18.405Z,69.34
2019-05-03T19:12:58.025Z,68.35
2019-05-03T19:15:25.156Z,68.76
2019-05-03T19:17:59.355Z,70.01
2019-05-03T19:20:25.439Z,70.88
2019-05-03T19:22:54.429Z,71.17
2019-05-03T19:25:20.349Z,70.76
2019-05-03T19:27:46.389Z,70.34
2019-05-03T19:30:14.875Z,69.98
2019-05-03T19:32:40.816Z,69.73
2019-05-03T19:35:06.803Z,70.90
2019-05-03T19:37:32.685Z,71.02
2019-05-03T19:39:58.512Z,71.56
2019-05-03T19:42:24.807Z,71.37
2019-05-03T19:44:52.032Z,72.35
2019-05-03T19:47:17.842Z,73.46
2019-05-03T19:49:45.429Z,74.23
2019-05-03T19:52:14.483Z,74.58
2019-05-03T19:54:40.577Z,74.18
2019-05-03T19:57:06.381Z,74.59
2019-05-03T19:59:49.221Z,75.83
2019-05-03T20:02:20.146Z,75.84
2019-05-03T20:05:06.118Z,75.92
2019-05-03T20:07:34.701Z,76.39
2019-05-03T20:10:00.875Z,76.24
2019-05-03T20:12:26.962Z,76.26
2019-05-03T20:14:54.603Z,76.04
2019-05-03T20:17:20.720Z,75.84
2019-05-03T20:19:46.792Z,75.90
2019-05-03T20:22:12.610Z,75.69
2019-05-03T20:24:38.421Z,75.42
2019-05-03T20:27:04.790Z,74.83
2019-05-03T20:29:30.561Z,76.31
2019-05-03T20:31:56.606Z,76.74
2019-05-03T20:34:22.421Z,77.58
2019-05-03T20:36:48.204Z,78.18
2019-05-03T20:39:14.833Z,78.33
2019-05-03T20:41:40.701Z,78.25
2019-05-03T20:44:14.780Z,78.58
2019-05-03T20:46:45.504Z,78.98
2019-05-03T20:49:14.991Z,79.26
2019-05-03T20:51:40.914Z,79.97
2019-05-03T20:54:06.820Z,82.05
2019-05-03T20:56:32.686Z,82.78
2019-05-03T20:58:58.514Z,83.88
2019-05-03T21:01:25.666Z,84.51
2019-05-03T21:03:51.482Z,86.21
2019-05-03T21:06:17.308Z,86.68
2019-05-03T21:08:52.205Z,86.10
2019-05-03T21:11:10.799Z,85.03
2019-05-03T21:13:41.886Z,86.30
2019-05-03T21:16:06.222Z,86.49
2019-05-03T21:18:34.482Z,88.08
2019-05-03T21:21:14.833Z,88.06
2019-05-03T21:23:51.763Z,88.08
2019-05-03T21:26:17.562Z,88.98
2019-05-03T21:28:44.934Z,88.37
2019-05-03T21:31:10.940Z,88.96
2019-05-03T21:33:36.756Z,89.82
2019-05-03T21:36:04.667Z,89.73
2019-05-03T21:38:30.870Z,89.22
2019-05-03T21:40:56.680Z,87.53
2019-05-03T21:43:22.477Z,86.38
2019-05-03T21:45:50.412Z,86.19
2019-05-03T21:48:20.654Z,86.64
2019-05-03T21:50:46.750Z,87.33
2019-05-03T21:53:14.594Z,89.04
2019-05-03T21:55:40.515Z,87.44
2019-05-03T21:58:06.572Z,88.81
2019-05-03T22:00:34.364Z,87.08
2019-05-03T22:03:00.575Z,88.18
2019-05-03T22:05:26.659Z,89.11
2019-05-03T22:07:52.483Z,87.80
2019-05-03T22:10:18.271Z,88.63
2019-05-03T22:12:44.050Z,87.52
2019-05-03T22:15:27.105Z,88.34
2019-05-03T22:17:57.860Z,87.26
2019-05-03T22:20:25.593Z,88.07
2019-05-03T22:23:02.208Z,88.43
2019-05-03T22:25:30.195Z,87.15
2019-05-03T22:27:55.985Z,86.97
2019-05-03T22:30:21.773Z,86.63
2019-05-03T22:32:47.610Z,86.33
2019-05-03T22:35:15.590Z,85.59
2019-05-03T22:37:41.388Z,86.50
2019-05-03T22:40:07.440Z,86.80
2019-05-03T22:42:34.576Z,87.01
2019-05-03T22:45:00.456Z,87.61
2019-05-03T22:47:26.516Z,87.63
2019-05-03T22:49:54.646Z,86.12
2019-05-03T22:52:19.989Z,85.59
2019-05-03T22:54:46.049Z,86.53
2019-05-03T22:57:11.851Z,84.24
2019-05-03T22:59:37.635Z,84.28
2019-05-03T23:02:03.697Z,84.74
2019-05-03T23:04:29.466Z,84.80
2019-05-03T23:06:55.812Z,84.80
2019-05-03T23:09:21.689Z,84.95
2019-05-03T23:11:47.484Z,85.55
2019-05-03T23:14:15.109Z,84.53
2019-05-03T23:16:41.014Z,85.93
2019-05-03T23:19:06.820Z,87.37
2019-05-03T23:21:34.500Z,87.33
2019-05-03T23:24:00.304Z,86.45
2019-05-03T23:26:26.101Z,88.17
2019-05-03T23:28:51.882Z,89.88
2019-05-03T23:31:17.698Z,89.98
2019-05-03T23:33:45.211Z,89.65
2019-05-03T23:36:11.269Z,90.38
2019-05-03T23:38:37.085Z,89.74
2019-05-03T23:41:04.789Z,90.26
2019-05-03T23:43:30.665Z,90.85
2019-05-03T23:45:56.716Z,91.34
2019-05-03T23:48:22.541Z,91.36
2019-05-03T23:50:48.318Z,89.13
2019-05-03T23:53:15.385Z,88.92
2019-05-03T23:55:49.100Z,87.12
2019-05-03T23:58:14.910Z,87.45
